Time;durP1;ratioP1;P1;durP2;ratioP2;P2;SDS_P1;SDS_P2;PMS_P1;PMS_P2;Temp;Humidity;BMP_temperature;BMP_pressure;BME280_temperature;BME280_humidity;BME280_pressure;Samples;Min_cycle;Max_cycle;Signal;HPM_P1;HPM_P2
2022/01/01 00:18:21;;;;;;;18.92;6.97;;;;;;;13.61;87.44;100788.59;6242515;22;20689;-75
2022/01/01 00:20:46;;;;;;;22.05;7.00;;;;;;;13.64;87.51;100790.78;6221919;22;20011;-74
2022/01/01 00:23:12;;;;;;;31.90;8.57;;;;;;;13.44;87.36;100759.47;6272864;22;20011;-74
2022/01/01 00:25:45;;;;;;;24.35;7.38;;;;;;;13.63;87.52;100783.63;6248042;22;20373;-79
2022/01/01 00:28:15;;;;;;;24.23;7.03;;;;;;;13.51;87.55;100774.88;6246791;22;20011;-75
2022/01/01 00:30:40;;;;;;;13.52;6.13;;;;;;;13.55;87.80;100762.22;6245204;22;20081;-75
2022/01/01 00:33:06;;;;;;;16.63;7.47;;;;;;;13.68;87.28;100780.91;6243602;22;20008;-76
2022/01/01 00:35:32;;;;;;;19.42;7.47;;;;;;;13.66;87.08;100772.09;6219775;22;20106;-74
2022/01/01 00:37:58;;;;;;;17.90;8.07;;;;;;;13.64;87.13;100768.81;6271626;22;20386;-75
2022/01/01 00:40:23;;;;;;;32.15;7.55;;;;;;;13.59;86.86;100755.91;6271678;22;20086;-75
2022/01/01 00:42:48;;;;;;;23.52;7.80;;;;;;;13.61;86.88;100759.19;6244541;22;20014;-75
2022/01/01 00:45:14;;;;;;;26.15;7.63;;;;;;;13.56;86.29;100756.44;6246236;22;20381;-74
2022/01/01 00:47:39;;;;;;;20.48;7.22;;;;;;;13.59;86.58;100760.56;6274550;22;20322;-73
2022/01/01 00:50:07;;;;;;;20.75;8.10;;;;;;;13.61;86.67;100752.88;6221674;22;20012;-75
2022/01/01 00:52:33;;;;;;;20.48;7.40;;;;;;;13.56;86.35;100758.38;6248958;22;20422;-73
2022/01/01 00:54:58;;;;;;;22.15;8.10;;;;;;;13.50;86.72;100754.00;6273983;22;20004;-73
2022/01/01 00:57:24;;;;;;;15.77;7.18;;;;;;;13.48;86.86;100759.78;6246928;22;20086;-72
2022/01/01 00:59:52;;;;;;;27.55;8.48;;;;;;;13.41;86.57;100749.06;6247393;22;20008;-74
2022/01/01 01:02:17;;;;;;;31.75;9.07;;;;;;;13.48;86.27;100765.25;6246433;22;20023;-74
2022/01/01 01:04:43;;;;;;;21.88;6.70;;;;;;;13.42;86.74;100760.88;6273671;22;20388;-74
2022/01/01 01:07:12;;;;;;;28.95;8.32;;;;;;;13.39;86.62;100743.03;6220223;22;20011;-74
2022/01/01 01:09:38;;;;;;;35.88;8.45;;;;;;;13.33;86.39;100733.13;6221946;22;20012;-73
2022/01/01 01:12:03;;;;;;;24.50;7.60;;;;;;;13.35;86.26;100725.44;6272473;22;20079;-74
2022/01/01 01:14:39;;;;;;;25.42;8.75;;;;;;;13.34;86.23;100712.81;6220561;22;20008;-74
2022/01/01 01:17:04;;;;;;;;;;;;;;;13.32;86.51;100715.00;6245716;22;20094;-73
2022/01/01 01:19:29;;;;;;;;;;;;;;;13.26;86.00;100718.84;6242571;22;20088;-74
2022/01/01 01:21:55;;;;;;;21.40;7.47;;;;;;;13.21;86.13;100718.84;6241773;23;19904;-75
2022/01/01 01:24:23;;;;;;;29.45;8.93;;;;;;;13.18;86.67;100722.97;6240071;23;20008;-76
2022/01/01 01:26:50;;;;;;;26.23;9.48;;;;;;;13.15;86.29;100718.03;6242911;22;20092;-76
2022/01/01 01:29:20;;;;;;;28.17;8.32;;;;;;;13.04;86.58;100725.47;6240959;23;20012;-81
2022/01/01 01:31:46;;;;;;;41.08;9.73;;;;;;;12.97;86.85;100704.88;6243234;23;20026;-78
2022/01/01 01:34:12;;;;;;;21.42;8.13;;;;;;;13.09;86.61;100724.63;6215724;23;20446;-76
2022/01/01 01:36:38;;;;;;;25.88;8.60;;;;;;;12.98;86.50;100718.31;6218076;23;20012;-76
2022/01/01 01:39:05;;;;;;;35.70;8.07;;;;;;;12.99;86.64;100746.59;6243426;23;20523;-73
2022/01/01 01:41:31;;;;;;;30.40;8.35;;;;;;;13.01;86.38;100733.41;6243626;22;20026;-77
2022/01/01 01:44:00;;;;;;;32.42;9.90;;;;;;;12.98;86.46;100742.19;6242387;23;20008;-77
2022/01/01 01:46:26;;;;;;;36.30;9.95;;;;;;;12.97;86.88;100730.41;6242928;22;20007;-75
2022/01/01 01:48:52;;;;;;;30.30;8.63;;;;;;;13.02;86.36;100752.34;6242920;22;20377;-75
2022/01/01 01:51:18;;;;;;;25.83;8.07;;;;;;;12.99;86.41;100736.44;6240497;23;20023;-78
2022/01/01 01:53:44;;;;;;;37.42;8.48;;;;;;;12.95;86.34;100738.06;6242155;22;20541;-75
2022/01/01 01:56:09;;;;;;;24.80;9.07;;;;;;;12.99;86.42;100752.91;6216495;23;20004;-75
2022/01/01 01:58:35;;;;;;;31.38;8.43;;;;;;;12.94;86.33;100739.19;6239608;23;20150;-76
2022/01/01 02:03:26;;;;;;;25.35;8.07;;;;;;;12.98;86.06;100751.28;6252073;22;20011;-76
2022/01/01 02:05:53;;;;;;;24.35;8.00;;;;;;;12.98;85.94;100745.78;6241606;23;20079;-76
2022/01/01 02:08:19;;;;;;;27.75;8.13;;;;;;;13.01;85.82;100739.72;6238816;23;20004;-76
2022/01/01 02:10:48;;;;;;;24.65;7.53;;;;;;;12.99;86.25;100739.16;6240384;22;20065;-75
2022/01/01 02:13:23;;;;;;;25.00;8.23;;;;;;;12.99;86.06;100749.34;6238229;22;20008;-75
2022/01/01 02:18:14;;;;;;;30.10;7.32;;;;;;;13.02;85.48;100741.34;6251383;22;20024;-76
2022/01/01 02:20:49;;;;;;;22.73;7.13;;;;;;;13.03;86.04;100751.25;6244823;22;20299;-75
2022/01/01 02:23:15;;;;;;;22.08;6.38;;;;;;;13.04;85.78;100739.19;6244656;22;20039;-74
2022/01/01 02:25:41;;;;;;;25.58;6.90;;;;;;;13.03;85.59;100748.50;6271272;22;20007;-76
2022/01/01 02:28:07;;;;;;;21.42;6.60;;;;;;;13.05;85.36;100750.97;6272687;22;20003;-74
2022/01/01 02:30:32;;;;;;;24.50;7.38;;;;;;;12.92;85.75;100736.72;6271808;22;20007;-74
2022/01/01 02:32:58;;;;;;;19.70;5.95;;;;;;;12.99;85.26;100750.16;6242346;22;20015;-75
2022/01/01 02:35:24;;;;;;;17.08;5.78;;;;;;;13.03;85.24;100751.25;6274253;22;20437;-75
2022/01/01 02:37:50;;;;;;;18.95;6.45;;;;;;;13.02;85.47;100751.53;6247640;22;20145;-75
2022/01/01 02:40:15;;;;;;;18.85;6.18;;;;;;;13.00;85.45;100746.31;6271968;22;20005;-76
2022/01/01 02:42:42;;;;;;;13.90;5.43;;;;;;;13.01;85.25;100747.97;6273962;22;20000;-77
2022/01/01 02:45:11;;;;;;;19.08;6.15;;;;;;;12.99;84.96;100746.59;6246987;22;20006;-76
2022/01/01 02:47:37;;;;;;;21.30;5.70;;;;;;;12.92;85.14;100741.34;6246586;22;20407;-76
2022/01/01 02:50:03;;;;;;;15.30;6.60;;;;;;;12.87;84.98;100746.88;6258748;22;20038;-73
2022/01/01 02:52:29;;;;;;;20.23;6.97;;;;;;;12.84;85.27;100748.22;6292026;22;20007;-74
2022/01/01 02:54:54;;;;;;;14.75;5.88;;;;;;;12.82;85.13;100744.09;6295732;22;19992;-74
2022/01/01 02:57:20;;;;;;;18.55;6.43;;;;;;;12.72;85.21;100720.25;6267455;22;20007;-74
2022/01/01 02:59:46;;;;;;;20.10;7.22;;;;;;;12.69;85.47;100721.59;6257616;22;20326;-73
2022/01/01 03:02:11;;;;;;;15.48;6.55;;;;;;;12.58;85.45;100720.75;6249255;22;20011;-74
2022/01/01 03:04:36;;;;;;;21.90;6.13;;;;;;;12.59;85.42;100710.63;6197426;22;20004;-75
2022/01/01 03:07:02;;;;;;;21.20;7.30;;;;;;;12.62;85.47;100720.22;6198677;22;20306;-74
2022/01/01 03:09:34;;;;;;;22.48;6.40;;;;;;;12.56;85.61;100716.66;6246546;22;20035;-76
2022/01/01 03:12:07;;;;;;;24.10;6.82;;;;;;;12.58;85.71;100717.19;6248946;22;20061;-75
2022/01/01 03:14:33;;;;;;;24.17;6.68;;;;;;;12.56;85.84;100701.00;6244140;22;20811;-76
2022/01/01 03:16:59;;;;;;;16.98;6.38;;;;;;;12.58;85.79;100704.28;6248379;22;20035;-74
2022/01/01 03:19:26;;;;;;;21.30;5.97;;;;;;;12.57;85.85;100708.16;6240747;22;20770;-74
2022/01/01 03:21:52;;;;;;;14.60;6.07;;;;;;;12.53;85.85;100695.25;6242701;23;20106;-74
2022/01/01 03:24:27;;;;;;;;;;;;;;;;;;;;;
2022/01/01 03:26:53;;;;;;;8.77;5.35;;;;;;;12.49;85.57;100677.69;6241482;23;20079;-74
2022/01/01 03:29:19;;;;;;;23.90;6.30;;;;;;;12.61;85.60;100702.94;6242976;23;20038;-74
2022/01/01 03:31:45;;;;;;;15.43;6.22;;;;;;;12.57;85.36;100697.19;6242253;23;20016;-75
2022/01/01 03:34:11;;;;;;;21.92;6.32;;;;;;;12.56;85.58;100700.19;6242975;22;20008;-75
2022/01/01 03:36:38;;;;;;;24.65;6.88;;;;;;;12.54;85.77;100699.63;6244712;23;20007;-77
2022/01/01 03:39:05;;;;;;;14.55;4.93;;;;;;;12.55;85.63;100698.53;6239886;23;20004;-77
2022/01/01 03:41:35;;;;;;;20.42;5.43;;;;;;;12.51;85.23;100686.47;6244611;22;20004;-75
2022/01/01 03:44:01;;;;;;;17.75;5.80;;;;;;;12.44;85.81;100680.41;6244063;22;20426;-75
2022/01/01 03:46:36;;;;;;;22.02;6.47;;;;;;;12.47;85.52;100701.81;6242667;22;20003;-75
2022/01/01 03:49:02;;;;;;;17.75;5.90;;;;;;;12.43;85.42;100711.69;6217336;23;20004;-77
2022/01/01 03:51:33;;;;;;;9.73;4.88;;;;;;;12.35;85.73;100683.72;6241202;23;20361;-76
2022/01/01 03:54:07;;;;;;;13.95;4.72;;;;;;;12.42;85.00;100688.91;6243842;22;20007;-76
2022/01/01 03:56:42;;;;;;;14.32;5.60;;;;;;;12.49;85.41;100677.69;6243027;23;20008;-75
2022/01/01 03:59:07;;;;;;;11.45;5.75;;;;;;;12.49;85.29;100683.19;6242324;23;20377;-76
2022/01/01 04:01:33;;;;;;;13.57;5.32;;;;;;;12.50;85.51;100668.34;6240031;23;20028;-76
2022/01/01 04:03:58;;;;;;;27.35;5.32;;;;;;;12.43;85.71;100662.34;6215826;23;20016;-75
2022/01/01 04:06:24;;;;;;;15.10;5.75;;;;;;;12.49;86.08;100669.47;6240899;23;20061;-73
2022/01/01 04:08:52;;;;;;;17.45;6.10;;;;;;;12.51;85.73;100664.50;6240035;23;20007;-75
2022/01/01 04:11:17;;;;;;;23.38;6.65;;;;;;;12.46;85.82;100670.81;6217742;23;20011;-74
2022/01/01 04:13:42;;;;;;;12.75;5.78;;;;;;;12.46;86.34;100672.75;6190906;23;20012;-74
2022/01/01 04:16:10;;;;;;;15.80;6.40;;;;;;;12.49;86.08;100685.91;6237933;23;20011;-75
2022/01/01 04:18:38;;;;;;;12.05;4.90;;;;;;;12.54;86.25;100672.19;6241200;22;20131;-75
2022/01/01 04:21:11;;;;;;;24.08;6.25;;;;;;;12.51;86.20;100676.34;6238925;23;20418;-76
2022/01/01 04:23:38;;;;;;;11.13;5.47;;;;;;;12.52;86.04;100664.25;6240973;22;20004;-75
2022/01/01 04:26:03;;;;;;;17.38;6.13;;;;;;;12.53;85.77;100668.63;6242626;22;20034;-75
2022/01/01 04:28:29;;;;;;;20.75;6.75;;;;;;;12.49;86.39;100664.78;6238708;23;20008;-76
2022/01/01 04:30:54;;;;;;;26.92;7.40;;;;;;;12.54;85.93;100648.34;6242867;22;20385;-75
2022/01/01 04:33:20;;;;;;;20.17;5.65;;;;;;;12.51;86.38;100642.56;6240550;23;20034;-74
2022/01/01 04:35:45;;;;;;;15.55;5.95;;;;;;;12.61;86.67;100639.03;6212591;23;20407;-74
2022/01/01 04:38:26;;;;;;;20.63;4.97;;;;;;;12.62;86.42;100644.22;6238940;23;20008;-76
2022/01/01 04:40:52;;;;;;;23.60;6.38;;;;;;;12.62;86.51;100641.50;6238266;23;20008;-75
2022/01/01 04:43:17;;;;;;;12.13;5.35;;;;;;;12.58;85.96;100626.66;6241125;23;20018;-74
2022/01/01 04:45:43;;;;;;;18.60;5.40;;;;;;;12.59;86.08;100628.31;6240907;23;20054;-74
2022/01/01 04:48:08;;;;;;;12.50;4.95;;;;;;;12.63;86.19;100625.84;6240439;23;20062;-75
2022/01/01 04:50:34;;;;;;;12.25;5.50;;;;;;;12.65;86.13;100627.22;6190109;23;20369;-75
2022/01/01 04:52:59;;;;;;;12.80;5.38;;;;;;;12.63;85.40;100623.09;6213621;23;20011;-75
2022/01/01 04:55:25;;;;;;;19.38;6.18;;;;;;;12.65;85.53;100627.22;6190022;23;20377;-75
2022/01/01 04:57:51;;;;;;;19.25;5.53;;;;;;;12.64;86.00;100620.06;6239054;22;20008;-74
2022/01/01 05:00:16;;;;;;;20.63;5.60;;;;;;;12.62;85.83;100616.78;6209027;23;20411;-75
2022/01/01 05:02:42;;;;;;;13.93;6.15;;;;;;;12.62;85.92;100616.78;6240446;23;20011;-77
2022/01/01 05:05:08;;;;;;;14.38;5.65;;;;;;;12.59;85.90;100609.13;6238382;23;20138;-76
2022/01/01 05:07:33;;;;;;;12.70;5.45;;;;;;;12.65;86.08;100610.75;6239708;23;20109;-74
2022/01/01 05:09:59;;;;;;;19.38;5.75;;;;;;;12.66;85.48;100626.13;6238111;23;20032;-75
2022/01/01 05:12:25;;;;;;;14.35;5.30;;;;;;;12.64;85.17;100606.34;6240758;23;20012;-75
2022/01/01 05:14:50;;;;;;;13.88;5.30;;;;;;;12.64;85.04;100608.28;6239774;23;20386;-75
2022/01/01 05:17:17;;;;;;;22.42;5.85;;;;;;;12.57;85.75;100597.56;6240149;23;20023;-75
2022/01/01 05:19:43;;;;;;;21.02;5.97;;;;;;;12.57;85.76;100595.69;6263649;22;20712;-75
2022/01/01 05:22:08;;;;;;;20.70;6.05;;;;;;;12.57;85.49;100581.13;6271277;22;20004;-74
2022/01/01 05:24:34;;;;;;;19.85;5.93;;;;;;;12.59;84.62;100578.94;6243188;22;20090;-75
2022/01/01 05:27:00;;;;;;;17.63;6.20;;;;;;;12.54;84.99;100581.69;6272053;22;19999;-75
2022/01/01 05:29:25;;;;;;;19.33;5.75;;;;;;;12.53;84.72;100582.78;6272710;22;20003;-74
2022/01/01 05:31:51;;;;;;;17.95;7.53;;;;;;;12.48;85.08;100569.06;6271175;22;20011;-75
2022/01/01 05:34:16;;;;;;;16.83;5.53;;;;;;;12.51;84.86;100571.25;6245355;22;20414;-75
2022/01/01 05:36:42;;;;;;;18.77;5.25;;;;;;;12.44;84.52;100560.59;6272517;22;20353;-77
2022/01/01 05:39:08;;;;;;;20.25;5.70;;;;;;;12.40;84.53;100584.97;6271512;22;20030;-77
2022/01/01 05:41:34;;;;;;;14.18;4.85;;;;;;;12.39;85.26;100568.78;6274344;22;20008;-77
2022/01/01 05:44:00;;;;;;;16.60;5.32;;;;;;;12.40;84.98;100581.41;6217369;22;20082;-74
2022/01/01 05:46:25;;;;;;;20.33;5.45;;;;;;;12.34;84.58;100571.56;6272237;22;20000;-75
2022/01/01 05:48:50;;;;;;;9.10;4.65;;;;;;;12.29;84.93;100564.13;6244842;22;20010;-75
2022/01/01 05:51:19;;;;;;;22.67;6.05;;;;;;;12.25;84.82;100549.34;6242057;22;20007;-75
2022/01/01 05:53:44;;;;;;;17.48;6.28;;;;;;;12.28;85.17;100551.53;6240790;22;20106;-74
2022/01/01 05:56:10;;;;;;;23.90;5.85;;;;;;;12.27;84.59;100552.63;6243129;22;20099;-74
2022/01/01 05:58:35;;;;;;;14.40;4.97;;;;;;;12.26;85.16;100545.47;6271530;22;20318;-74
2022/01/01 06:01:01;;;;;;;16.80;5.20;;;;;;;12.21;84.72;100529.06;6243683;22;20004;-74
2022/01/01 06:03:26;;;;;;;9.50;4.82;;;;;;;12.21;84.78;100531.78;6244740;22;20007;-74
2022/01/01 06:05:52;;;;;;;18.27;4.63;;;;;;;12.19;84.97;100534.81;6273209;22;20008;-74
2022/01/01 06:08:18;;;;;;;22.13;5.32;;;;;;;12.18;85.17;100529.59;6222084;22;20029;-74
2022/01/01 06:10:44;;;;;;;14.93;5.18;;;;;;;12.19;84.92;100514.78;6273619;22;20368;-74
2022/01/01 06:13:09;;;;;;;10.32;4.15;;;;;;;12.17;84.89;100533.44;6246628;22;20010;-74
2022/01/01 06:15:35;;;;;;;17.33;5.18;;;;;;;12.16;84.38;100531.78;6247087;22;20011;-75
2022/01/01 06:18:01;;;;;;;17.65;5.50;;;;;;;12.13;84.38;100529.59;6273026;22;20058;-74
2022/01/01 06:20:26;;;;;;;11.45;3.70;;;;;;;12.15;84.46;100532.88;6271756;22;20027;-74
2022/01/01 06:22:52;;;;;;;10.75;4.28;;;;;;;12.15;84.41;100508.19;6246213;22;20022;-76
2022/01/01 06:25:20;;;;;;;14.05;4.80;;;;;;;12.15;84.57;100505.44;6273733;22;20007;-75
2022/01/01 06:27:46;;;;;;;15.40;4.32;;;;;;;12.12;84.53;100506.00;6246367;22;20083;-75
2022/01/01 06:30:11;;;;;;;14.10;4.82;;;;;;;12.08;84.61;100496.72;6247110;22;20015;-76
2022/01/01 06:32:37;;;;;;;21.02;5.07;;;;;;;12.07;84.20;100490.38;6273708;22;20385;-74
2022/01/01 06:35:03;;;;;;;19.50;4.68;;;;;;;12.05;84.30;100509.84;6245205;22;20018;-74
2022/01/01 06:37:28;;;;;;;9.80;3.75;;;;;;;12.05;84.32;100509.84;6247082;22;20592;-75
2022/01/01 06:39:54;;;;;;;19.23;4.72;;;;;;;12.04;84.18;100510.94;6275043;22;20057;-76
2022/01/01 06:42:19;;;;;;;20.60;4.50;;;;;;;12.01;84.14;100507.94;6274430;22;20008;-75
2022/01/01 06:44:45;;;;;;;16.67;3.95;;;;;;;11.95;84.50;100493.41;6274614;22;20003;-75
2022/01/01 06:47:10;;;;;;;20.23;4.45;;;;;;;11.96;84.01;100500.53;6273905;22;20003;-74
2022/01/01 06:49:36;;;;;;;21.48;4.22;;;;;;;11.99;83.98;100501.91;6256103;22;20012;-74
2022/01/01 06:52:03;;;;;;;14.80;4.20;;;;;;;12.00;83.74;100514.50;6294508;22;20078;-74
2022/01/01 06:54:29;;;;;;;22.52;4.82;;;;;;;11.96;83.46;100516.97;6292692;22;20123;-74
2022/01/01 06:56:54;;;;;;;12.82;3.67;;;;;;;11.99;83.78;100505.47;6295508;22;20015;-75
2022/01/01 06:59:20;;;;;;;9.80;4.13;;;;;;;11.98;83.98;100506.56;6266589;22;20454;-74
2022/01/01 07:01:45;;;;;;;14.90;4.13;;;;;;;11.97;83.44;100504.94;6290566;22;20023;-74
2022/01/01 07:04:11;;;;;;;26.90;4.95;;;;;;;11.95;83.28;100498.88;6248748;22;20014;-75
2022/01/01 07:06:37;;;;;;;13.75;4.43;;;;;;;11.93;83.85;100503.81;6249691;22;20354;-74
2022/01/01 07:09:04;;;;;;;19.02;4.50;;;;;;;11.96;82.95;100516.13;6278957;22;20086;-73
2022/01/01 07:11:29;;;;;;;16.55;4.43;;;;;;;11.99;82.93;100501.91;6290028;22;20073;-74
2022/01/01 07:13:55;;;;;;;13.18;3.90;;;;;;;11.93;83.18;100487.38;6294776;22;20008;-75
2022/01/01 07:16:21;;;;;;;18.67;4.88;;;;;;;11.99;82.92;100497.25;6267860;22;20012;-74
2022/01/01 07:18:46;;;;;;;14.48;4.78;;;;;;;12.00;82.88;100498.91;6256797;22;20026;-74
2022/01/01 07:21:12;;;;;;;16.20;4.22;;;;;;;12.01;82.50;100503.25;6261636;22;20068;-74
2022/01/01 07:23:38;;;;;;;11.63;3.92;;;;;;;12.00;82.45;100485.19;6235281;22;20015;-75
2022/01/01 07:26:03;;;;;;;11.20;3.67;;;;;;;12.04;82.40;100502.72;6256954;22;20054;-75
2022/01/01 07:28:29;;;;;;;12.23;3.40;;;;;;;12.03;82.62;100484.66;6276315;22;20070;-75
2022/01/01 07:30:54;;;;;;;9.88;3.58;;;;;;;12.03;82.39;100481.91;6246927;22;20007;-76
2022/01/01 07:33:20;;;;;;;4.57;3.65;;;;;;;12.09;82.51;100465.44;6271036;22;20003;-75
2022/01/01 07:35:45;;;;;;;7.60;2.95;;;;;;;12.09;81.76;100471.75;6272953;22;20004;-75
2022/01/01 07:38:11;;;;;;;9.05;3.72;;;;;;;12.12;81.70;100481.34;6218081;22;20016;-74
2022/01/01 07:40:39;;;;;;;7.43;3.08;;;;;;;12.18;81.37;100496.72;6246465;22;20011;-75
2022/01/01 07:43:15;;;;;;;4.75;2.40;;;;;;;12.22;81.68;100482.16;6244877;22;20016;-75
2022/01/01 07:45:41;;;;;;;8.00;4.10;;;;;;;12.21;80.84;100452.28;6243873;22;20067;-75
2022/01/01 07:48:08;;;;;;;3.53;3.17;;;;;;;12.25;80.88;100505.47;6269297;22;20007;-75
2022/01/01 07:50:35;;;;;;;10.13;3.20;;;;;;;12.27;80.99;100516.16;6267238;22;20011;-75
2022/01/01 07:53:00;;;;;;;6.20;3.15;;;;;;;12.27;80.83;100494.22;6282327;22;20010;-75
2022/01/01 07:55:26;;;;;;;12.80;4.22;;;;;;;12.31;80.54;100482.44;6275967;22;20057;-75
2022/01/01 07:58:05;;;;;;;11.50;3.17;;;;;;;12.32;81.00;100470.34;6276908;22;20411;-76
2022/01/01 08:00:32;;;;;;;4.93;3.10;;;;;;;12.23;80.77;100433.63;6274905;22;20426;-76
2022/01/01 08:02:57;;;;;;;2.97;2.25;;;;;;;12.20;80.64;100465.16;6274029;22;20003;-77
2022/01/01 08:05:23;;;;;;;4.70;2.53;;;;;;;12.22;80.75;100481.31;6245752;22;20492;-74
2022/01/01 08:07:50;;;;;;;3.15;2.25;;;;;;;12.19;80.24;100490.09;6248362;22;20003;-77
2022/01/01 08:10:19;;;;;;;5.32;2.58;;;;;;;12.22;80.49;100504.09;6248054;22;20095;-76
2022/01/01 08:12:45;;;;;;;12.15;3.33;;;;;;;12.21;80.32;100496.16;6224809;22;20415;-78
2022/01/01 08:15:19;;;;;;;8.18;2.92;;;;;;;12.14;80.62;100479.16;6275038;22;20014;-76
2022/01/01 08:17:49;;;;;;;12.05;3.08;;;;;;;12.25;80.11;100507.38;6251068;22;20442;-76
2022/01/01 08:20:35;;;;;;;11.20;2.63;;;;;;;12.17;79.97;100486.81;6247797;22;20104;-77
2022/01/01 08:23:00;;;;;;;8.93;3.17;;;;;;;12.20;79.99;100486.28;6205801;23;20449;-77
2022/01/01 08:25:28;;;;;;;13.98;3.47;;;;;;;12.36;79.95;100506.28;6250032;22;19992;-75
2022/01/01 08:27:54;;;;;;;10.82;3.35;;;;;;;12.40;79.56;100510.13;6249777;22;20008;-75
2022/01/01 08:30:19;;;;;;;6.43;3.00;;;;;;;12.43;79.52;100503.25;6194089;23;20645;-75
2022/01/01 08:32:45;;;;;;;11.52;2.97;;;;;;;12.47;79.31;100504.34;6240450;23;20795;-75
2022/01/01 08:35:10;;;;;;;12.20;3.38;;;;;;;12.48;78.86;100500.50;6244967;22;20015;-75
2022/01/01 08:37:36;;;;;;;7.93;2.75;;;;;;;12.52;78.23;100512.56;6242263;22;20316;-74
2022/01/01 08:40:03;;;;;;;8.88;3.20;;;;;;;12.51;78.27;100500.78;6244023;22;20342;-75
2022/01/01 08:42:28;;;;;;;9.93;3.08;;;;;;;12.55;78.23;100501.84;6241860;23;20011;-73
2022/01/01 08:44:54;;;;;;;4.70;3.05;;;;;;;12.66;77.74;100491.69;6239229;22;20016;-73
2022/01/01 08:47:24;;;;;;;5.95;2.88;;;;;;;12.59;77.87;100469.22;6214976;23;20012;-75
2022/01/01 08:49:52;;;;;;;4.78;2.65;;;;;;;12.68;77.74;100484.00;6216519;23;20449;-76
2022/01/01 08:52:17;;;;;;;6.85;2.78;;;;;;;12.72;77.51;100485.09;6243629;22;20347;-75
2022/01/01 08:54:43;;;;;;;7.57;3.10;;;;;;;12.73;77.00;100486.72;6244509;23;20139;-75
2022/01/01 08:57:09;;;;;;;4.20;2.65;;;;;;;12.79;76.37;100497.69;6242120;23;20087;-73
2022/01/01 08:59:35;;;;;;;11.23;3.28;;;;;;;12.83;76.58;100505.06;6242276;22;20012;-76
2022/01/01 09:02:02;;;;;;;11.88;2.78;;;;;;;12.87;76.45;100508.09;6217166;23;20004;-76
2022/01/01 09:04:28;;;;;;;8.38;2.30;;;;;;;12.92;76.37;100510.81;6213196;23;20091;-75
2022/01/01 09:06:53;;;;;;;5.95;2.88;;;;;;;12.77;75.78;100481.50;6243123;23;20103;-75
2022/01/01 09:09:19;;;;;;;3.92;2.30;;;;;;;12.90;76.08;100491.06;6243227;22;20019;-76
2022/01/01 09:11:47;;;;;;;12.70;2.85;;;;;;;12.89;75.47;100497.66;6215869;23;20084;-77
2022/01/01 09:14:12;;;;;;;13.07;3.22;;;;;;;12.91;75.58;100509.19;6242053;23;20012;-76
2022/01/01 09:16:38;;;;;;;4.43;2.17;;;;;;;12.95;75.71;100501.19;6216108;23;20928;-75
2022/01/01 09:19:06;;;;;;;9.18;3.00;;;;;;;12.97;75.19;100502.56;6216743;22;20023;-78
2022/01/01 09:21:31;;;;;;;8.13;2.47;;;;;;;13.13;75.53;100510.72;6243509;23;20008;-76
2022/01/01 09:23:57;;;;;;;3.28;2.35;;;;;;;13.20;75.03;100516.75;6242553;23;20082;-76
2022/01/01 09:26:23;;;;;;;15.38;3.55;;;;;;;13.22;74.44;100511.81;6242924;23;20028;-77
2022/01/01 09:28:49;;;;;;;15.10;2.58;;;;;;;13.34;74.81;100506.81;6241665;23;20078;-77
2022/01/01 09:31:15;;;;;;;3.97;2.33;;;;;;;13.43;74.68;100494.16;6215368;23;20157;-76
2022/01/01 09:33:40;;;;;;;9.75;3.53;;;;;;;13.53;74.26;100498.75;6214535;23;20024;-76
2022/01/01 09:36:07;;;;;;;6.85;2.53;;;;;;;13.61;73.78;100513.84;6240577;23;20008;-77
2022/01/01 09:38:34;;;;;;;5.25;2.22;;;;;;;13.80;73.38;100511.22;6215793;23;20008;-77
2022/01/01 09:41:00;;;;;;;8.50;2.20;;;;;;;14.09;73.23;100515.94;6241072;22;20338;-77
2022/01/01 09:43:27;;;;;;;8.82;1.98;;;;;;;14.27;72.41;100511.69;6216968;23;20012;-77
2022/01/01 09:45:55;;;;;;;5.07;2.20;;;;;;;14.46;72.05;100520.03;6242752;22;20006;-77
2022/01/01 09:48:22;;;;;;;9.05;2.65;;;;;;;14.51;71.33;100532.94;6242896;22;20004;-77
2022/01/01 09:50:52;;;;;;;11.07;2.83;;;;;;;14.55;70.45;100531.25;6243805;22;20032;-76
2022/01/01 09:53:18;;;;;;;9.77;2.70;;;;;;;14.54;70.42;100521.34;6244230;22;20007;-77
2022/01/01 09:55:44;;;;;;;4.75;1.85;;;;;;;14.57;70.65;100507.84;6241638;23;20008;-77
2022/01/01 09:58:45;;;;;;;;;;;;;;;;;;;;;
2022/01/01 10:01:21;;;;;;;;;;;;;;;;;;;;;
2022/01/01 10:03:50;;;;;;;11.45;3.33;;;;;;;14.43;70.05;100499.41;6218500;23;20086;-77
2022/01/01 10:06:28;;;;;;;;;;;;;;;;;;;;;
2022/01/01 10:09:21;;;;;;;;;;;;;;;;;;;;;
2022/01/01 10:12:23;;;;;;;;;;;;;;;;;;;;;
2022/01/01 10:15:07;;;;;;;;;;;;;;;;;;;;;
2022/01/01 10:18:33;;;;;;;14.95;2.65;;;;;;;15.14;67.35;100491.50;6244860;23;20387;-77
2022/01/01 10:21:08;;;;;;;19.80;3.42;;;;;;;15.44;67.32;100514.25;6273603;22;20016;-77
2022/01/01 10:24:29;;;;;;;;;;;;;;;;;;;;;
2022/01/01 10:33:48;;;;;;;9.15;3.05;;;;;;;15.31;67.42;100539.78;6215866;22;20077;-75
2022/01/01 10:37:13;;;;;;;;;;;;;;;;;;;;;
2022/01/01 10:40:22;;;;;;;;;;;;;;;;;;;;;
2022/01/01 10:43:14;;;;;;;;;;;;;;;;;;;;;
2022/01/01 10:53:34;;;;;;;19.20;3.85;;;;;;;13.00;82.37;100523.97;6093931;23;20017;-78
2022/01/01 11:00:20;;;;;;;;;;;;;;;;;;;;;
2022/01/01 13:09:53;;;;;;;41.35;5.28;;;;;;;13.16;87.75;100392.13;6271708;22;20019;-75
2022/01/01 13:13:06;;;;;;;;;;;;;;;;;;;;;
2022/01/01 13:16:28;;;;;;;;;;;;;;;;;;;;;
2022/01/01 13:18:55;;;;;;;35.85;5.78;;;;;;;13.41;87.33;100402.97;6268315;22;20075;-77
2022/01/01 13:21:21;;;;;;;43.67;5.97;;;;;;;13.40;87.26;100373.88;6246428;22;20996;-76
2022/01/01 13:23:50;;;;;;;36.28;5.72;;;;;;;13.67;87.02;100400.03;6245910;22;20007;-76
2022/01/01 13:26:18;;;;;;;42.85;6.03;;;;;;;13.86;86.91;100413.06;6245190;22;20065;-75
2022/01/01 13:28:55;;;;;;;31.95;5.47;;;;;;;13.92;86.10;100411.91;6247039;22;20026;-76
2022/01/01 13:31:21;;;;;;;45.13;7.22;;;;;;;13.86;85.65;100418.56;6244213;22;20003;-76
2022/01/01 13:33:50;;;;;;;40.30;5.68;;;;;;;13.81;85.97;100435.09;6243307;22;20012;-75
2022/01/01 13:36:43;;;;;;;27.63;4.55;;;;;;;13.85;86.07;100438.91;6269760;22;20416;-78
2022/01/01 13:39:24;;;;;;;30.45;4.93;;;;;;;13.79;86.07;100422.44;6237761;22;20004;-78
2022/01/01 13:41:58;;;;;;;41.30;5.25;;;;;;;13.72;85.76;100418.41;6245252;22;20086;-77
2022/01/01 13:44:42;;;;;;;25.42;5.05;;;;;;;13.74;85.98;100428.00;6253359;22;20011;-78
2022/01/01 13:47:12;;;;;;;32.63;6.88;;;;;;;13.72;85.48;100407.41;6248328;22;20027;-77
2022/01/01 13:49:44;;;;;;;40.17;5.32;;;;;;;13.76;85.19;100411.22;6244255;22;20060;-76
2022/01/01 13:52:17;;;;;;;38.97;6.40;;;;;;;13.77;85.38;100415.63;6246444;22;20027;-77
2022/01/01 13:54:43;;;;;;;27.65;5.13;;;;;;;13.63;84.96;100420.94;6272084;22;20000;-76
2022/01/01 13:57:11;;;;;;;23.45;5.43;;;;;;;13.61;84.83;100401.19;6254693;22;20000;-78
2022/01/01 13:59:59;;;;;;;36.65;5.32;;;;;;;13.66;84.82;100423.09;6203382;22;20023;-78
2022/01/01 14:02:49;;;;;;;26.92;4.90;;;;;;;13.47;84.69;100408.44;6253948;22;20059;-79
2022/01/01 14:05:26;;;;;;;;;;;;;;;;;;;;;
2022/01/01 14:08:17;;;;;;;31.38;4.90;;;;;;;13.48;85.66;100418.28;6279494;22;20019;-78
2022/01/01 14:10:54;;;;;;;27.50;5.32;;;;;;;13.31;85.85;100394.75;6250909;22;20036;-79
2022/01/01 14:13:45;;;;;;;42.50;6.32;;;;;;;13.43;85.89;100436.47;6226180;22;20024;-77
2022/01/01 14:16:24;;;;;;;42.03;5.15;;;;;;;13.26;86.47;100411.28;6227339;22;20015;-77
2022/01/01 14:18:56;;;;;;;27.20;5.47;;;;;;;13.39;86.42;100429.06;6254654;22;20012;-79
2022/01/01 14:22:03;;;;;;;;;;;;;;;;;;;;;
2022/01/01 14:25:06;;;;;;;;;;;;;;;13.46;85.98;100428.75;6259770;22;20074;-79
2022/01/01 14:30:44;;;;;;;30.33;4.57;;;;;;;13.47;85.83;100427.66;6279970;22;20042;-78
2022/01/01 14:33:10;;;;;;;24.88;5.55;;;;;;;13.42;85.89;100421.09;6227983;22;20375;-78
2022/01/01 14:36:22;;;;;;;45.28;6.22;;;;;;;13.54;85.68;100423.47;6254227;22;20008;-75
2022/01/01 14:39:52;;;;;;;;;;;;;;;;;;;;;
2022/01/01 14:42:40;;;;;;;;;;;;;;;;;;;;;
2022/01/01 14:49:19;;;;;;;31.67;5.25;;;;;;;13.60;85.51;100418.75;6281809;22;20011;-79